createdAt,value
2023-05-20T00:02:13.251Z,14.10
2023-05-20T00:04:42.117Z,14.10
2023-05-20T00:07:08.959Z,14.02
2023-05-20T00:09:35.568Z,14.02
2023-05-20T00:12:02.751Z,14.00
2023-05-20T00:14:29.443Z,14.00
2023-05-20T00:16:56.304Z,14.00
2023-05-20T00:19:30.681Z,14.00
2023-05-20T00:21:58.097Z,14.00
2023-05-20T00:24:25.845Z,14.00
2023-05-20T00:26:52.842Z,14.00
2023-05-20T00:29:22.060Z,14.00
2023-05-20T00:31:48.820Z,14.00
2023-05-20T00:34:15.654Z,14.00
2023-05-20T00:36:43.144Z,14.00
2023-05-20T00:39:09.819Z,14.00
2023-05-20T00:41:36.663Z,14.00
2023-05-20T00:44:03.332Z,14.00
2023-05-20T00:46:30.366Z,14.00
2023-05-20T00:48:58.024Z,14.00
2023-05-20T00:51:24.858Z,14.00
2023-05-20T00:53:51.685Z,14.00
2023-05-20T00:56:18.725Z,13.94
2023-05-20T00:58:45.884Z,13.90
2023-05-20T01:01:12.631Z,13.90
2023-05-20T01:03:40.485Z,13.90
2023-05-20T01:06:07.234Z,13.90
2023-05-20T01:08:34.222Z,13.90
2023-05-20T01:11:17.926Z,13.90
2023-05-20T01:13:58.419Z,13.80
2023-05-20T01:16:25.347Z,13.80
2023-05-20T01:18:57.523Z,13.80
2023-05-20T01:21:25.224Z,13.80
2023-05-20T01:23:52.465Z,13.80
2023-05-20T01:26:19.715Z,13.76
2023-05-20T01:28:46.576Z,13.70
2023-05-20T01:31:27.782Z,13.70
2023-05-20T01:33:59.739Z,13.70
2023-05-20T01:36:29.020Z,13.70
2023-05-20T01:38:57.251Z,13.70
2023-05-20T01:41:25.590Z,13.70
2023-05-20T01:43:56.130Z,13.70
2023-05-20T01:46:22.915Z,13.70
2023-05-20T01:48:49.625Z,13.60
2023-05-20T01:51:16.814Z,13.60
2023-05-20T01:53:43.878Z,13.70
2023-05-20T01:56:10.800Z,13.70
2023-05-20T01:58:37.605Z,13.70
2023-05-20T02:01:04.292Z,13.70
2023-05-20T02:03:30.928Z,13.70
2023-05-20T02:05:57.679Z,13.70
2023-05-20T02:08:24.404Z,13.70
2023-05-20T02:10:51.247Z,13.70
2023-05-20T02:13:17.865Z,13.70
2023-05-20T02:15:45.093Z,13.60
2023-05-20T02:18:12.743Z,13.60
2023-05-20T02:20:39.645Z,13.60
2023-05-20T02:23:07.000Z,13.60
2023-05-20T02:25:34.786Z,13.60
2023-05-20T02:28:06.310Z,13.50
2023-05-20T02:30:33.008Z,13.60
2023-05-20T02:33:00.224Z,13.60
2023-05-20T02:35:27.068Z,13.60
2023-05-20T02:37:54.170Z,13.60
2023-05-20T02:40:21.043Z,13.60
2023-05-20T02:42:47.664Z,13.60
2023-05-20T02:45:14.485Z,13.60
2023-05-20T02:47:41.191Z,13.50
2023-05-20T02:50:08.945Z,13.50
2023-05-20T02:52:36.530Z,13.50
2023-05-20T02:55:04.493Z,13.42
2023-05-20T02:57:31.649Z,13.42
2023-05-20T02:59:58.297Z,13.48
2023-05-20T03:02:25.242Z,13.42
2023-05-20T03:04:54.271Z,13.40
2023-05-20T03:07:21.746Z,13.40
2023-05-20T03:09:49.141Z,13.40
2023-05-20T03:12:16.870Z,13.40
2023-05-20T03:14:43.995Z,13.40
2023-05-20T03:17:11.649Z,13.40
2023-05-20T03:19:38.268Z,13.38
2023-05-20T03:22:05.094Z,13.36
2023-05-20T03:24:32.283Z,13.32
2023-05-20T03:26:59.288Z,13.30
2023-05-20T03:29:26.058Z,13.30
2023-05-20T03:31:52.768Z,13.30
2023-05-20T03:34:19.983Z,13.30
2023-05-20T03:36:47.032Z,13.30
2023-05-20T03:39:13.706Z,13.30
2023-05-20T03:41:40.835Z,13.30
2023-05-20T03:44:07.706Z,13.40
2023-05-20T03:46:34.610Z,13.30
2023-05-20T03:49:02.584Z,13.30
2023-05-20T03:51:29.808Z,13.30
2023-05-20T03:54:01.228Z,13.30
2023-05-20T03:56:27.965Z,13.20
2023-05-20T03:58:55.279Z,13.20
2023-05-20T04:01:25.884Z,13.20
2023-05-20T04:03:52.726Z,13.20
2023-05-20T04:06:19.504Z,13.16
2023-05-20T04:08:46.835Z,13.10
2023-05-20T04:11:13.529Z,13.10
2023-05-20T04:13:40.119Z,13.10
2023-05-20T04:16:07.253Z,13.10
2023-05-20T04:18:39.087Z,13.10
2023-05-20T04:21:06.100Z,13.16
2023-05-20T04:23:33.142Z,13.20
2023-05-20T04:26:02.405Z,13.20
2023-05-20T04:28:31.909Z,13.20
2023-05-20T04:31:05.542Z,13.20
2023-05-20T04:33:37.855Z,13.22
2023-05-20T04:36:07.241Z,13.24
2023-05-20T04:38:36.135Z,13.20
2023-05-20T04:41:03.164Z,13.20
2023-05-20T04:43:30.582Z,13.20
2023-05-20T04:45:59.886Z,13.30
2023-05-20T04:48:27.114Z,13.30
2023-05-20T04:50:54.445Z,13.30
2023-05-20T04:53:24.206Z,13.30
2023-05-20T04:55:54.751Z,13.30
2023-05-20T04:58:24.396Z,13.30
2023-05-20T05:00:52.489Z,13.40
2023-05-20T05:03:19.207Z,13.40
2023-05-20T05:05:45.868Z,13.44
2023-05-20T05:08:12.660Z,13.40
2023-05-20T05:10:43.162Z,13.40
2023-05-20T05:13:09.913Z,13.40
2023-05-20T05:15:37.029Z,13.40
2023-05-20T05:18:04.522Z,13.40
2023-05-20T05:20:33.360Z,13.40
2023-05-20T05:23:00.024Z,13.40
2023-05-20T05:25:26.652Z,13.50
2023-05-20T05:27:55.408Z,13.50
2023-05-20T05:30:22.499Z,13.40
2023-05-20T05:32:49.476Z,13.50
2023-05-20T05:35:17.680Z,13.40
2023-05-20T05:37:44.381Z,13.40
2023-05-20T05:40:12.545Z,13.40
2023-05-20T05:42:39.585Z,13.50
2023-05-20T05:45:07.492Z,13.50
2023-05-20T05:47:34.350Z,13.58
2023-05-20T05:50:01.641Z,13.70
2023-05-20T05:52:28.591Z,13.68
2023-05-20T05:54:55.659Z,13.70
2023-05-20T05:57:22.719Z,13.70
2023-05-20T05:59:51.063Z,13.62
2023-05-20T06:02:17.931Z,13.70
2023-05-20T06:04:44.767Z,13.70
2023-05-20T06:07:11.435Z,13.70
2023-05-20T06:09:38.664Z,13.60
2023-05-20T06:12:05.841Z,13.70
2023-05-20T06:14:32.923Z,13.70
2023-05-20T06:16:59.859Z,13.80
2023-05-20T06:19:26.676Z,13.90
2023-05-20T06:21:53.367Z,14.10
2023-05-20T06:24:22.370Z,14.12
2023-05-20T06:26:51.266Z,14.22
2023-05-20T06:29:18.052Z,14.30
2023-05-20T06:31:44.769Z,14.30
2023-05-20T06:34:11.398Z,14.30
2023-05-20T06:36:38.122Z,14.40
2023-05-20T06:39:06.428Z,14.40
2023-05-20T06:41:34.101Z,14.48
2023-05-20T06:44:08.261Z,14.60
2023-05-20T06:46:54.168Z,14.70
2023-05-20T06:49:20.995Z,14.70
2023-05-20T06:51:48.495Z,14.84
2023-05-20T06:54:15.352Z,14.88
2023-05-20T06:56:44.306Z,14.80
2023-05-20T06:59:11.058Z,14.70
2023-05-20T07:01:38.392Z,14.70
2023-05-20T07:04:05.193Z,14.70
2023-05-20T07:06:32.595Z,14.70
2023-05-20T07:08:59.710Z,14.72
2023-05-20T07:11:26.778Z,14.90
2023-05-20T07:13:54.288Z,15.00
2023-05-20T07:16:20.912Z,15.28
2023-05-20T07:18:53.191Z,15.40
2023-05-20T07:21:19.907Z,15.70
2023-05-20T07:24:18.085Z,16.10
2023-05-20T07:26:44.948Z,16.20
2023-05-20T07:29:11.788Z,16.20
2023-05-20T07:31:39.116Z,16.20
2023-05-20T07:34:06.209Z,16.10
2023-05-20T07:36:33.019Z,16.10
2023-05-20T07:39:06.187Z,16.00
2023-05-20T07:41:38.486Z,16.00
2023-05-20T07:44:08.785Z,16.10
2023-05-20T07:46:38.334Z,16.10
2023-05-20T07:49:06.236Z,16.10
2023-05-20T07:51:34.009Z,16.20
2023-05-20T07:54:01.268Z,16.40
2023-05-20T07:56:28.764Z,16.40
2023-05-20T07:58:58.784Z,16.40
2023-05-20T08:01:28.850Z,16.30
2023-05-20T08:03:56.027Z,16.30
2023-05-20T08:06:25.796Z,16.56
2023-05-20T08:08:54.321Z,17.26
2023-05-20T08:11:24.596Z,18.54
2023-05-20T08:13:52.000Z,19.48
2023-05-20T08:16:18.745Z,20.48
2023-05-20T08:18:45.484Z,21.00
2023-05-20T08:21:12.638Z,21.70
2023-05-20T08:23:40.685Z,22.00
2023-05-20T08:26:07.988Z,21.80
2023-05-20T08:28:38.006Z,22.10
2023-05-20T08:31:05.174Z,22.28
2023-05-20T08:33:32.055Z,23.00
2023-05-20T08:35:58.763Z,23.06
2023-05-20T08:38:25.549Z,23.10
2023-05-20T08:40:55.661Z,23.72
2023-05-20T08:43:24.664Z,24.10
2023-05-20T08:45:54.985Z,24.10
2023-05-20T08:48:28.083Z,23.80
2023-05-20T08:50:58.094Z,23.58
2023-05-20T08:53:26.760Z,23.22
2023-05-20T08:56:00.772Z,23.40
2023-05-20T08:58:29.743Z,23.78
2023-05-20T09:00:56.655Z,23.76
2023-05-20T09:03:24.500Z,23.72
2023-05-20T09:05:53.354Z,24.18
2023-05-20T09:08:26.224Z,24.80
2023-05-20T09:10:53.986Z,24.90
2023-05-20T09:13:23.522Z,25.70
2023-05-20T09:15:50.953Z,26.16
2023-05-20T09:18:17.831Z,26.48
2023-05-20T09:20:50.947Z,26.54
2023-05-20T09:23:21.179Z,26.50
2023-05-20T09:25:52.074Z,26.86
2023-05-20T09:28:25.553Z,26.98
2023-05-20T09:30:58.898Z,26.46
2023-05-20T09:33:35.854Z,25.72
2023-05-20T09:36:08.485Z,25.50
2023-05-20T09:38:39.567Z,25.38
2023-05-20T09:41:14.080Z,25.00
2023-05-20T09:43:42.060Z,24.70
2023-05-20T09:46:09.233Z,24.80
2023-05-20T09:48:37.499Z,24.80
2023-05-20T09:51:06.107Z,24.70
2023-05-20T09:53:32.765Z,24.50
2023-05-20T09:55:59.669Z,24.40
2023-05-20T09:58:27.312Z,24.50
2023-05-20T10:00:54.132Z,24.42
2023-05-20T10:03:25.161Z,24.20
2023-05-20T10:06:20.435Z,24.16
2023-05-20T10:09:03.102Z,24.10
2023-05-20T10:11:59.056Z,24.02
2023-05-20T10:14:44.257Z,24.00
2023-05-20T10:17:24.324Z,23.74
2023-05-20T10:19:59.928Z,23.70
2023-05-20T10:22:31.784Z,23.80
2023-05-20T10:25:09.352Z,23.80
2023-05-20T10:27:47.592Z,23.80
2023-05-20T10:30:22.450Z,23.70
2023-05-20T10:32:56.876Z,23.70
2023-05-20T10:35:26.991Z,23.70
2023-05-20T10:38:06.462Z,23.60
2023-05-20T10:40:33.387Z,23.50
2023-05-20T10:43:13.387Z,23.70
2023-05-20T10:45:55.248Z,23.70
2023-05-20T10:48:34.377Z,23.70
2023-05-20T10:51:06.582Z,23.80
2023-05-20T10:53:41.797Z,24.00
2023-05-20T10:56:18.705Z,24.10
2023-05-20T10:58:45.885Z,24.30
2023-05-20T11:01:14.417Z,24.32
2023-05-20T11:03:42.285Z,24.40
2023-05-20T11:06:18.594Z,24.40
2023-05-20T11:08:46.663Z,24.40
2023-05-20T11:11:15.136Z,24.30
2023-05-20T11:13:42.054Z,24.40
2023-05-20T11:16:09.716Z,24.40
2023-05-20T11:18:36.619Z,24.30
2023-05-20T11:21:03.496Z,24.30
2023-05-20T11:23:30.549Z,24.26
2023-05-20T11:25:58.211Z,24.28
2023-05-20T11:28:25.619Z,24.40
2023-05-20T11:30:53.438Z,24.50
2023-05-20T11:33:20.622Z,24.70
2023-05-20T11:35:54.631Z,24.76
2023-05-20T11:38:21.872Z,24.80
2023-05-20T11:40:54.593Z,24.90
2023-05-20T11:43:23.817Z,24.90
2023-05-20T11:45:57.651Z,24.80
2023-05-20T11:48:24.704Z,24.70
2023-05-20T11:50:54.371Z,24.50
2023-05-20T11:53:23.995Z,24.52
2023-05-20T11:55:55.225Z,24.60
2023-05-20T11:58:32.803Z,24.60
2023-05-20T12:01:09.482Z,24.70
2023-05-20T12:03:46.463Z,24.70
2023-05-20T12:06:13.737Z,24.74
2023-05-20T12:08:40.610Z,24.80
2023-05-20T12:11:07.305Z,24.90
2023-05-20T12:13:35.360Z,25.00
2023-05-20T12:16:02.510Z,25.00
2023-05-20T12:18:29.269Z,25.10
2023-05-20T12:20:55.987Z,25.14
2023-05-20T12:23:22.743Z,25.20
2023-05-20T12:25:50.086Z,25.20
2023-05-20T12:28:19.764Z,25.20
2023-05-20T12:30:46.408Z,25.18
2023-05-20T12:33:13.800Z,25.20
2023-05-20T12:35:43.100Z,25.26
2023-05-20T12:38:10.326Z,25.30
2023-05-20T12:40:37.973Z,25.28
2023-05-20T12:43:05.701Z,25.20
2023-05-20T12:45:32.815Z,25.20
2023-05-20T12:47:59.698Z,25.20
2023-05-20T12:50:27.911Z,25.30
2023-05-20T12:52:54.531Z,25.40
2023-05-20T12:55:21.346Z,25.40
2023-05-20T12:57:48.317Z,25.60
2023-05-20T13:00:15.934Z,25.70
2023-05-20T13:02:43.868Z,25.76
2023-05-20T13:05:11.766Z,25.80
2023-05-20T13:07:38.872Z,25.90
2023-05-20T13:10:07.536Z,25.98
2023-05-20T13:12:35.352Z,25.90
2023-05-20T13:15:02.545Z,25.90
2023-05-20T13:17:29.392Z,25.80
2023-05-20T13:19:56.258Z,25.90
2023-05-20T13:22:23.146Z,25.70
2023-05-20T13:24:49.844Z,25.70
2023-05-20T13:27:16.564Z,25.70
2023-05-20T13:29:43.750Z,25.70
2023-05-20T13:32:10.655Z,25.60
2023-05-20T13:34:38.857Z,25.54
2023-05-20T13:37:06.691Z,25.60
2023-05-20T13:39:33.526Z,25.60
2023-05-20T13:42:00.291Z,25.60
2023-05-20T13:44:26.826Z,25.54
2023-05-20T13:46:53.902Z,25.42
2023-05-20T13:49:21.666Z,25.50
2023-05-20T13:51:48.371Z,25.60
2023-05-20T13:54:15.141Z,25.40
2023-05-20T13:56:42.626Z,25.40
2023-05-20T13:59:09.740Z,25.40
2023-05-20T14:01:39.021Z,25.30
2023-05-20T14:04:07.251Z,25.20
2023-05-20T14:06:33.997Z,25.20
2023-05-20T14:09:02.670Z,25.10
2023-05-20T14:11:29.297Z,25.00
2023-05-20T14:13:56.098Z,25.00
2023-05-20T14:16:23.057Z,24.90
2023-05-20T14:18:49.778Z,24.90
2023-05-20T14:21:16.489Z,24.80
2023-05-20T14:23:45.202Z,24.70
2023-05-20T14:26:11.971Z,24.70
2023-05-20T14:28:39.313Z,24.70
2023-05-20T14:31:08.948Z,24.70
2023-05-20T14:33:36.610Z,24.64
2023-05-20T14:36:03.829Z,24.50
2023-05-20T14:38:30.996Z,24.50
2023-05-20T14:40:57.655Z,24.40
2023-05-20T14:43:24.301Z,24.40
2023-05-20T14:45:51.923Z,24.30
2023-05-20T14:48:18.522Z,24.20
2023-05-20T14:50:45.175Z,24.10
2023-05-20T14:53:11.877Z,24.10
2023-05-20T14:55:38.536Z,24.04
2023-05-20T14:58:05.190Z,24.00
2023-05-20T15:00:32.963Z,24.00
2023-05-20T15:03:00.200Z,23.90
2023-05-20T15:05:26.984Z,23.82
2023-05-20T15:07:53.610Z,23.86
2023-05-20T15:10:20.390Z,23.90
2023-05-20T15:12:47.051Z,23.90
2023-05-20T15:15:13.699Z,23.90
2023-05-20T15:17:40.563Z,23.80
2023-05-20T15:20:08.194Z,23.80
2023-05-20T15:22:35.005Z,23.80
2023-05-20T15:25:01.890Z,23.70
2023-05-20T15:27:29.018Z,23.70
2023-05-20T15:29:55.675Z,23.70
2023-05-20T15:32:22.503Z,23.60
2023-05-20T15:34:49.374Z,23.60
2023-05-20T15:37:16.254Z,23.60
2023-05-20T15:39:42.876Z,23.60
2023-05-20T15:42:13.791Z,23.70
2023-05-20T15:44:40.425Z,23.64
2023-05-20T15:47:07.094Z,23.60
2023-05-20T15:49:33.737Z,23.60
2023-05-20T15:52:03.615Z,23.60
2023-05-20T15:54:31.937Z,23.50
2023-05-20T15:56:58.919Z,23.50
2023-05-20T15:59:25.919Z,23.50
2023-05-20T16:01:52.725Z,23.50
2023-05-20T16:04:20.432Z,23.58
2023-05-20T16:06:47.450Z,23.50
2023-05-20T16:09:14.207Z,23.42
2023-05-20T16:11:41.053Z,23.40
2023-05-20T16:14:07.638Z,23.36
2023-05-20T16:16:36.058Z,23.40
2023-05-20T16:19:03.203Z,23.30
2023-05-20T16:21:30.036Z,23.30
2023-05-20T16:23:56.687Z,23.20
2023-05-20T16:26:23.365Z,23.20
2023-05-20T16:28:50.024Z,23.10
2023-05-20T16:31:16.801Z,23.00
2023-05-20T16:33:43.536Z,23.00
2023-05-20T16:36:12.178Z,23.00
2023-05-20T16:38:39.394Z,23.00
2023-05-20T16:41:06.700Z,23.00
2023-05-20T16:43:33.288Z,23.00
2023-05-20T16:46:00.067Z,23.00
2023-05-20T16:48:26.821Z,22.98
2023-05-20T16:50:53.560Z,22.94
2023-05-20T16:53:20.184Z,22.90
2023-05-20T16:55:47.243Z,22.90
2023-05-20T16:58:13.885Z,22.90
2023-05-20T17:00:41.187Z,22.80
2023-05-20T17:03:08.049Z,22.72
2023-05-20T17:05:34.896Z,22.70
2023-05-20T17:08:01.661Z,22.70
2023-05-20T17:10:29.416Z,22.60
2023-05-20T17:12:56.119Z,22.60
2023-05-20T17:15:23.633Z,22.60
2023-05-20T17:17:50.896Z,22.50
2023-05-20T17:20:17.800Z,22.50
2023-05-20T17:22:44.591Z,22.40
2023-05-20T17:25:11.661Z,22.40
2023-05-20T17:27:38.293Z,22.30
2023-05-20T17:30:05.967Z,22.30
2023-05-20T17:32:32.578Z,22.20
2023-05-20T17:35:06.515Z,22.20
2023-05-20T17:37:43.003Z,22.20
2023-05-20T17:40:17.664Z,22.10
2023-05-20T17:42:48.460Z,22.10
2023-05-20T17:45:15.348Z,22.08
2023-05-20T17:47:42.121Z,22.00
2023-05-20T17:50:10.225Z,22.00
2023-05-20T17:52:37.079Z,21.96
2023-05-20T17:55:04.775Z,21.90
2023-05-20T17:57:31.565Z,21.80
2023-05-20T17:59:58.246Z,21.80
2023-05-20T18:02:24.941Z,21.74
2023-05-20T18:04:51.728Z,21.70
2023-05-20T18:07:18.382Z,21.60
2023-05-20T18:09:45.082Z,21.60
2023-05-20T18:12:11.698Z,21.50
2023-05-20T18:14:38.362Z,21.50
2023-05-20T18:17:05.192Z,21.40
2023-05-20T18:19:33.699Z,21.38
2023-05-20T18:22:01.179Z,21.30
2023-05-20T18:24:27.756Z,21.30
2023-05-20T18:26:54.428Z,21.20
2023-05-20T18:29:23.272Z,21.12
2023-05-20T18:31:49.999Z,21.10
2023-05-20T18:34:16.637Z,21.04
2023-05-20T18:36:43.310Z,21.00
2023-05-20T18:39:10.541Z,21.00
2023-05-20T18:41:46.565Z,20.90
2023-05-20T18:44:19.098Z,20.90
2023-05-20T18:46:46.506Z,20.80
2023-05-20T18:49:13.281Z,20.80
2023-05-20T18:51:41.900Z,20.70
2023-05-20T18:54:08.625Z,20.70
2023-05-20T18:56:35.915Z,20.60
2023-05-20T18:59:02.706Z,20.60
2023-05-20T19:01:29.482Z,20.50
2023-05-20T19:03:56.348Z,20.46
2023-05-20T19:06:22.969Z,20.40
2023-05-20T19:08:49.692Z,20.36
2023-05-20T19:11:16.419Z,20.30
2023-05-20T19:13:43.078Z,20.30
2023-05-20T19:16:09.895Z,20.20
2023-05-20T19:18:36.568Z,20.20
2023-05-20T19:21:03.468Z,20.10
2023-05-20T19:23:30.045Z,20.10
2023-05-20T19:25:56.806Z,20.00
2023-05-20T19:28:23.474Z,20.00
2023-05-20T19:30:50.180Z,19.90
2023-05-20T19:33:16.893Z,19.90
2023-05-20T19:35:43.643Z,19.80
2023-05-20T19:38:10.856Z,19.80
2023-05-20T19:40:37.467Z,19.80
2023-05-20T19:43:04.791Z,19.70
2023-05-20T19:45:32.194Z,19.70
2023-05-20T19:47:58.996Z,19.60
2023-05-20T19:50:25.632Z,19.60
2023-05-20T19:52:52.435Z,19.50
2023-05-20T19:55:19.165Z,19.50
2023-05-20T19:57:47.563Z,19.50
2023-05-20T20:00:15.421Z,19.40
2023-05-20T20:02:42.043Z,19.40
2023-05-20T20:05:09.890Z,19.40
2023-05-20T20:07:36.691Z,19.30
2023-05-20T20:10:03.980Z,19.30
2023-05-20T20:12:30.927Z,19.20
2023-05-20T20:14:57.612Z,19.20
2023-05-20T20:17:24.353Z,19.20
2023-05-20T20:19:53.353Z,19.10
2023-05-20T20:22:20.383Z,19.10
2023-05-20T20:24:47.594Z,19.10
2023-05-20T20:27:14.284Z,19.00
2023-05-20T20:29:43.725Z,19.00
2023-05-20T20:32:11.826Z,19.00
2023-05-20T20:34:38.492Z,18.90
2023-05-20T20:37:06.819Z,18.90
2023-05-20T20:39:34.805Z,18.90
2023-05-20T20:42:03.109Z,18.82
2023-05-20T20:44:29.834Z,18.80
2023-05-20T20:46:58.470Z,18.80
2023-05-20T20:49:26.940Z,18.72
2023-05-20T20:51:55.046Z,18.70
2023-05-20T20:54:21.798Z,18.70
2023-05-20T20:56:50.164Z,18.66
2023-05-20T20:59:16.833Z,18.60
2023-05-20T21:01:44.744Z,18.58
2023-05-20T21:04:13.928Z,18.50
2023-05-20T21:06:42.210Z,18.50
2023-05-20T21:09:09.547Z,18.50
2023-05-20T21:11:38.322Z,18.42
2023-05-20T21:14:05.204Z,18.40
2023-05-20T21:16:32.034Z,18.40
2023-05-20T21:18:58.896Z,18.36
2023-05-20T21:21:25.489Z,18.30
2023-05-20T21:23:53.036Z,18.30
2023-05-20T21:26:24.715Z,18.30
2023-05-20T21:28:52.546Z,18.26
2023-05-20T21:31:19.412Z,18.20
2023-05-20T21:33:46.113Z,18.20
2023-05-20T21:36:12.878Z,18.20
2023-05-20T21:38:39.942Z,18.20
2023-05-20T21:41:06.891Z,18.12
2023-05-20T21:43:33.617Z,18.10
2023-05-20T21:46:00.567Z,18.10
2023-05-20T21:48:27.271Z,18.00
2023-05-20T21:50:53.957Z,18.00
2023-05-20T21:53:20.602Z,17.94
2023-05-20T21:55:47.229Z,17.90
2023-05-20T21:58:13.993Z,17.84
2023-05-20T22:00:41.014Z,17.80
2023-05-20T22:03:07.805Z,17.80
2023-05-20T22:05:34.970Z,17.80
2023-05-20T22:08:02.052Z,17.78
2023-05-20T22:10:28.785Z,17.72
2023-05-20T22:12:55.789Z,17.70
2023-05-20T22:15:23.014Z,17.70
2023-05-20T22:17:49.817Z,17.60
2023-05-20T22:20:16.612Z,17.60
2023-05-20T22:22:43.341Z,17.60
2023-05-20T22:25:10.941Z,17.60
2023-05-20T22:27:38.724Z,17.60
2023-05-20T22:30:08.272Z,17.50
2023-05-20T22:32:34.922Z,17.50
2023-05-20T22:35:01.516Z,17.50
2023-05-20T22:37:28.836Z,17.50
2023-05-20T22:39:56.287Z,17.50
2023-05-20T22:42:23.081Z,17.40
2023-05-20T22:44:49.917Z,17.40
2023-05-20T22:47:16.610Z,17.40
2023-05-20T22:49:43.310Z,17.40
2023-05-20T22:52:10.053Z,17.40
2023-05-20T22:54:36.746Z,17.40
2023-05-20T22:57:03.540Z,17.30
2023-05-20T22:59:32.989Z,17.30
2023-05-20T23:01:59.767Z,17.30
2023-05-20T23:04:26.508Z,17.30
2023-05-20T23:06:57.233Z,17.30
2023-05-20T23:09:25.507Z,17.20
2023-05-20T23:11:52.186Z,17.20
2023-05-20T23:14:20.188Z,17.20
2023-05-20T23:16:47.342Z,17.20
2023-05-20T23:19:14.486Z,17.10
2023-05-20T23:21:41.260Z,17.10
2023-05-20T23:24:07.962Z,17.10
2023-05-20T23:26:37.792Z,17.10
2023-05-20T23:29:05.269Z,17.10
2023-05-20T23:31:33.026Z,17.10
2023-05-20T23:33:59.988Z,17.10
2023-05-20T23:36:29.247Z,17.10
2023-05-20T23:38:56.594Z,17.06
2023-05-20T23:41:23.825Z,17.00
2023-05-20T23:43:50.864Z,17.00
2023-05-20T23:46:18.610Z,17.00
2023-05-20T23:48:48.411Z,16.96
2023-05-20T23:51:16.478Z,16.90
2023-05-20T23:53:44.349Z,16.90
2023-05-20T23:56:11.453Z,16.90
2023-05-20T23:58:38.483Z,16.86
